sensor_id;sensor_type;location;lat;lon;timestamp;P1;durP1;ratioP1;P2;durP2;ratioP2
68653;SDS011;55636;51.108;13.622;2024-01-07T00:00:13;17.90;;;14.50;;
68653;SDS011;55636;51.108;13.622;2024-01-07T00:01:17;17.70;;;14.97;;
68653;SDS011;55636;51.108;13.622;2024-01-07T00:02:20;19.60;;;15.60;;
68653;SDS011;55636;51.108;13.622;2024-01-07T00:03:24;18.73;;;14.90;;
68653;SDS011;55636;51.108;13.622;2024-01-07T00:04:26;17.67;;;14.80;;
68653;SDS011;55636;51.108;13.622;2024-01-07T00:05:29;18.30;;;14.83;;
68653;SDS011;55636;51.108;13.622;2024-01-07T00:06:35;16.80;;;15.00;;
68653;SDS011;55636;51.108;13.622;2024-01-07T00:07:37;20.47;;;15.73;;
68653;SDS011;55636;51.108;13.622;2024-01-07T00:08:40;18.13;;;15.10;;
68653;SDS011;55636;51.108;13.622;2024-01-07T00:09:42;19.23;;;15.20;;
68653;SDS011;55636;51.108;13.622;2024-01-07T00:10:46;18.57;;;15.10;;
68653;SDS011;55636;51.108;13.622;2024-01-07T00:11:48;19.40;;;15.57;;
68653;SDS011;55636;51.108;13.622;2024-01-07T00:12:51;17.70;;;15.33;;
68653;SDS011;55636;51.108;13.622;2024-01-07T00:13:55;18.00;;;14.97;;
68653;SDS011;55636;51.108;13.622;2024-01-07T00:14:57;20.33;;;15.23;;
68653;SDS011;55636;51.108;13.622;2024-01-07T00:16:00;17.57;;;14.70;;
68653;SDS011;55636;51.108;13.622;2024-01-07T00:18:24;18.27;;;14.87;;
68653;SDS011;55636;51.108;13.622;2024-01-07T00:19:27;18.90;;;15.20;;
68653;SDS011;55636;51.108;13.622;2024-01-07T00:20:29;18.53;;;14.67;;
68653;SDS011;55636;51.108;13.622;2024-01-07T00:21:35;18.60;;;14.57;;
68653;SDS011;55636;51.108;13.622;2024-01-07T00:22:37;17.90;;;14.70;;
68653;SDS011;55636;51.108;13.622;2024-01-07T00:23:40;18.80;;;15.23;;
68653;SDS011;55636;51.108;13.622;2024-01-07T00:24:43;18.90;;;14.87;;
68653;SDS011;55636;51.108;13.622;2024-01-07T00:25:48;17.10;;;14.67;;
68653;SDS011;55636;51.108;13.622;2024-01-07T00:26:51;19.50;;;15.23;;
68653;SDS011;55636;51.108;13.622;2024-01-07T00:27:53;18.63;;;14.70;;
68653;SDS011;55636;51.108;13.622;2024-01-07T00:28:57;19.17;;;14.40;;
68653;SDS011;55636;51.108;13.622;2024-01-07T00:30:01;17.57;;;13.97;;
68653;SDS011;55636;51.108;13.622;2024-01-07T00:31:03;18.63;;;14.77;;
68653;SDS011;55636;51.108;13.622;2024-01-07T00:32:06;20.00;;;14.43;;
68653;SDS011;55636;51.108;13.622;2024-01-07T00:33:11;19.50;;;15.07;;
68653;SDS011;55636;51.108;13.622;2024-01-07T00:34:14;18.57;;;14.63;;
68653;SDS011;55636;51.108;13.622;2024-01-07T00:35:16;17.73;;;14.67;;
68653;SDS011;55636;51.108;13.622;2024-01-07T00:36:22;17.60;;;14.47;;
68653;SDS011;55636;51.108;13.622;2024-01-07T00:37:24;17.77;;;14.23;;
68653;SDS011;55636;51.108;13.622;2024-01-07T00:38:29;18.93;;;14.97;;
68653;SDS011;55636;51.108;13.622;2024-01-07T00:39:32;18.10;;;14.87;;
68653;SDS011;55636;51.108;13.622;2024-01-07T00:40:35;18.20;;;14.20;;
68653;SDS011;55636;51.108;13.622;2024-01-07T00:41:39;17.90;;;14.63;;
68653;SDS011;55636;51.108;13.622;2024-01-07T00:42:45;19.57;;;14.73;;
68653;SDS011;55636;51.108;13.622;2024-01-07T00:43:47;17.73;;;14.57;;
68653;SDS011;55636;51.108;13.622;2024-01-07T00:44:53;18.87;;;15.17;;
68653;SDS011;55636;51.108;13.622;2024-01-07T00:46:02;17.27;;;14.27;;
68653;SDS011;55636;51.108;13.622;2024-01-07T00:47:05;18.03;;;14.70;;
68653;SDS011;55636;51.108;13.622;2024-01-07T00:48:09;18.50;;;14.43;;
68653;SDS011;55636;51.108;13.622;2024-01-07T00:49:12;17.23;;;14.37;;
68653;SDS011;55636;51.108;13.622;2024-01-07T00:50:14;17.53;;;14.70;;
68653;SDS011;55636;51.108;13.622;2024-01-07T00:51:17;17.60;;;14.53;;
68653;SDS011;55636;51.108;13.622;2024-01-07T00:52:22;17.60;;;13.93;;
68653;SDS011;55636;51.108;13.622;2024-01-07T00:53:25;17.10;;;14.10;;
68653;SDS011;55636;51.108;13.622;2024-01-07T00:54:29;17.43;;;13.73;;
68653;SDS011;55636;51.108;13.622;2024-01-07T00:55:33;18.97;;;14.13;;
68653;SDS011;55636;51.108;13.622;2024-01-07T00:56:37;18.70;;;14.13;;
68653;SDS011;55636;51.108;13.622;2024-01-07T00:57:40;18.40;;;13.40;;
68653;SDS011;55636;51.108;13.622;2024-01-07T00:58:43;18.13;;;13.33;;
68653;SDS011;55636;51.108;13.622;2024-01-07T00:59:46;17.77;;;13.73;;
68653;SDS011;55636;51.108;13.622;2024-01-07T01:00:49;17.93;;;13.37;;
68653;SDS011;55636;51.108;13.622;2024-01-07T01:01:53;16.87;;;13.07;;
68653;SDS011;55636;51.108;13.622;2024-01-07T01:02:55;17.40;;;13.57;;
68653;SDS011;55636;51.108;13.622;2024-01-07T01:04:01;19.10;;;13.60;;
68653;SDS011;55636;51.108;13.622;2024-01-07T01:05:04;17.07;;;13.30;;
68653;SDS011;55636;51.108;13.622;2024-01-07T01:06:07;17.33;;;13.43;;
68653;SDS011;55636;51.108;13.622;2024-01-07T01:07:11;18.17;;;14.00;;
68653;SDS011;55636;51.108;13.622;2024-01-07T01:08:14;17.57;;;13.20;;
68653;SDS011;55636;51.108;13.622;2024-01-07T01:09:17;16.77;;;13.03;;
68653;SDS011;55636;51.108;13.622;2024-01-07T01:10:19;16.27;;;13.20;;
68653;SDS011;55636;51.108;13.622;2024-01-07T01:11:22;17.80;;;13.70;;
68653;SDS011;55636;51.108;13.622;2024-01-07T01:12:25;16.90;;;13.63;;
68653;SDS011;55636;51.108;13.622;2024-01-07T01:13:27;16.00;;;13.20;;
68653;SDS011;55636;51.108;13.622;2024-01-07T01:14:30;17.23;;;13.87;;
68653;SDS011;55636;51.108;13.622;2024-01-07T01:15:33;17.97;;;14.07;;
68653;SDS011;55636;51.108;13.622;2024-01-07T01:16:36;17.63;;;14.30;;
68653;SDS011;55636;51.108;13.622;2024-01-07T01:17:45;19.03;;;14.10;;
68653;SDS011;55636;51.108;13.622;2024-01-07T01:18:47;17.87;;;13.63;;
68653;SDS011;55636;51.108;13.622;2024-01-07T01:19:50;18.73;;;13.67;;
68653;SDS011;55636;51.108;13.622;2024-01-07T01:20:52;15.97;;;13.17;;
68653;SDS011;55636;51.108;13.622;2024-01-07T01:21:55;16.27;;;13.27;;
68653;SDS011;55636;51.108;13.622;2024-01-07T01:22:57;18.70;;;14.13;;
68653;SDS011;55636;51.108;13.622;2024-01-07T01:24:03;17.77;;;14.47;;
68653;SDS011;55636;51.108;13.622;2024-01-07T01:25:05;17.40;;;14.13;;
68653;SDS011;55636;51.108;13.622;2024-01-07T01:26:14;16.87;;;13.53;;
68653;SDS011;55636;51.108;13.622;2024-01-07T01:27:20;17.60;;;14.23;;
68653;SDS011;55636;51.108;13.622;2024-01-07T01:28:22;16.27;;;13.23;;
68653;SDS011;55636;51.108;13.622;2024-01-07T01:29:25;16.20;;;13.47;;
68653;SDS011;55636;51.108;13.622;2024-01-07T01:30:28;17.17;;;13.87;;
68653;SDS011;55636;51.108;13.622;2024-01-07T01:31:35;17.77;;;13.87;;
68653;SDS011;55636;51.108;13.622;2024-01-07T01:32:38;17.03;;;13.90;;
68653;SDS011;55636;51.108;13.622;2024-01-07T01:33:41;16.43;;;13.97;;
68653;SDS011;55636;51.108;13.622;2024-01-07T01:34:44;15.57;;;13.20;;
68653;SDS011;55636;51.108;13.622;2024-01-07T01:35:49;17.10;;;13.47;;
68653;SDS011;55636;51.108;13.622;2024-01-07T01:36:52;18.37;;;13.83;;
68653;SDS011;55636;51.108;13.622;2024-01-07T01:37:54;16.47;;;13.70;;
68653;SDS011;55636;51.108;13.622;2024-01-07T01:38:57;17.17;;;13.20;;
68653;SDS011;55636;51.108;13.622;2024-01-07T01:39:59;17.23;;;13.47;;
68653;SDS011;55636;51.108;13.622;2024-01-07T01:41:05;16.60;;;13.53;;
68653;SDS011;55636;51.108;13.622;2024-01-07T01:42:07;17.57;;;13.50;;
68653;SDS011;55636;51.108;13.622;2024-01-07T01:43:10;17.20;;;13.47;;
68653;SDS011;55636;51.108;13.622;2024-01-07T01:44:13;20.20;;;14.23;;
68653;SDS011;55636;51.108;13.622;2024-01-07T01:45:16;17.53;;;13.50;;
68653;SDS011;55636;51.108;13.622;2024-01-07T01:46:21;16.87;;;13.70;;
68653;SDS011;55636;51.108;13.622;2024-01-07T01:47:23;16.80;;;13.60;;
68653;SDS011;55636;51.108;13.622;2024-01-07T01:48:26;19.10;;;13.90;;
68653;SDS011;55636;51.108;13.622;2024-01-07T01:49:35;17.30;;;13.50;;
68653;SDS011;55636;51.108;13.622;2024-01-07T01:50:40;18.03;;;14.10;;
68653;SDS011;55636;51.108;13.622;2024-01-07T01:51:42;16.93;;;13.70;;
68653;SDS011;55636;51.108;13.622;2024-01-07T01:52:45;17.17;;;13.70;;
68653;SDS011;55636;51.108;13.622;2024-01-07T01:53:48;17.87;;;13.77;;
68653;SDS011;55636;51.108;13.622;2024-01-07T01:54:56;16.60;;;13.07;;
68653;SDS011;55636;51.108;13.622;2024-01-07T01:55:58;17.50;;;13.30;;
68653;SDS011;55636;51.108;13.622;2024-01-07T01:57:04;15.97;;;12.67;;
68653;SDS011;55636;51.108;13.622;2024-01-07T01:58:13;17.43;;;13.43;;
68653;SDS011;55636;51.108;13.622;2024-01-07T01:59:15;18.20;;;13.20;;
68653;SDS011;55636;51.108;13.622;2024-01-07T02:00:19;16.07;;;13.00;;
68653;SDS011;55636;51.108;13.622;2024-01-07T02:01:23;15.80;;;12.40;;
68653;SDS011;55636;51.108;13.622;2024-01-07T02:02:27;16.87;;;13.23;;
68653;SDS011;55636;51.108;13.622;2024-01-07T02:03:34;17.53;;;13.50;;
68653;SDS011;55636;51.108;13.622;2024-01-07T02:04:36;18.30;;;13.70;;
68653;SDS011;55636;51.108;13.622;2024-01-07T02:05:40;16.40;;;13.07;;
68653;SDS011;55636;51.108;13.622;2024-01-07T02:06:44;17.17;;;12.97;;
68653;SDS011;55636;51.108;13.622;2024-01-07T02:07:50;16.90;;;13.27;;
68653;SDS011;55636;51.108;13.622;2024-01-07T02:08:54;16.37;;;12.77;;
68653;SDS011;55636;51.108;13.622;2024-01-07T02:09:59;17.67;;;13.10;;
68653;SDS011;55636;51.108;13.622;2024-01-07T02:11:21;16.93;;;13.10;;
68653;SDS011;55636;51.108;13.622;2024-01-07T02:12:24;17.17;;;13.03;;
68653;SDS011;55636;51.108;13.622;2024-01-07T02:13:27;16.43;;;12.63;;
68653;SDS011;55636;51.108;13.622;2024-01-07T02:14:29;16.53;;;12.83;;
68653;SDS011;55636;51.108;13.622;2024-01-07T02:15:32;17.73;;;13.50;;
68653;SDS011;55636;51.108;13.622;2024-01-07T02:16:35;17.00;;;12.97;;
68653;SDS011;55636;51.108;13.622;2024-01-07T02:17:40;17.53;;;13.17;;
68653;SDS011;55636;51.108;13.622;2024-01-07T02:18:43;16.07;;;12.40;;
68653;SDS011;55636;51.108;13.622;2024-01-07T02:19:48;18.43;;;13.30;;
68653;SDS011;55636;51.108;13.622;2024-01-07T02:20:54;17.03;;;13.03;;
68653;SDS011;55636;51.108;13.622;2024-01-07T02:21:56;17.30;;;13.70;;
68653;SDS011;55636;51.108;13.622;2024-01-07T02:22:59;16.90;;;13.13;;
68653;SDS011;55636;51.108;13.622;2024-01-07T02:24:03;16.20;;;12.87;;
68653;SDS011;55636;51.108;13.622;2024-01-07T02:25:07;16.47;;;12.40;;
68653;SDS011;55636;51.108;13.622;2024-01-07T02:26:11;15.10;;;12.63;;
68653;SDS011;55636;51.108;13.622;2024-01-07T02:27:13;16.33;;;12.60;;
68653;SDS011;55636;51.108;13.622;2024-01-07T02:28:15;17.07;;;12.90;;
68653;SDS011;55636;51.108;13.622;2024-01-07T02:29:19;16.70;;;13.00;;
68653;SDS011;55636;51.108;13.622;2024-01-07T02:30:21;16.47;;;12.97;;
68653;SDS011;55636;51.108;13.622;2024-01-07T02:31:24;16.13;;;12.47;;
68653;SDS011;55636;51.108;13.622;2024-01-07T02:32:26;17.30;;;12.67;;
68653;SDS011;55636;51.108;13.622;2024-01-07T02:33:29;15.97;;;12.60;;
68653;SDS011;55636;51.108;13.622;2024-01-07T02:34:33;15.70;;;12.40;;
68653;SDS011;55636;51.108;13.622;2024-01-07T02:35:35;15.20;;;12.43;;
68653;SDS011;55636;51.108;13.622;2024-01-07T02:36:42;15.33;;;12.37;;
68653;SDS011;55636;51.108;13.622;2024-01-07T02:37:45;15.07;;;12.30;;
68653;SDS011;55636;51.108;13.622;2024-01-07T02:38:48;14.47;;;11.60;;
68653;SDS011;55636;51.108;13.622;2024-01-07T02:39:50;16.27;;;12.57;;
68653;SDS011;55636;51.108;13.622;2024-01-07T02:41:02;15.73;;;12.00;;
68653;SDS011;55636;51.108;13.622;2024-01-07T02:42:06;16.10;;;12.73;;
68653;SDS011;55636;51.108;13.622;2024-01-07T02:43:10;15.67;;;12.60;;
68653;SDS011;55636;51.108;13.622;2024-01-07T02:44:13;14.37;;;12.33;;
68653;SDS011;55636;51.108;13.622;2024-01-07T02:45:16;13.50;;;11.00;;
68653;SDS011;55636;51.108;13.622;2024-01-07T02:46:20;15.83;;;11.90;;
68653;SDS011;55636;51.108;13.622;2024-01-07T02:47:24;15.17;;;12.13;;
68653;SDS011;55636;51.108;13.622;2024-01-07T02:48:26;16.30;;;12.27;;
68653;SDS011;55636;51.108;13.622;2024-01-07T02:49:30;16.60;;;11.87;;
68653;SDS011;55636;51.108;13.622;2024-01-07T02:50:33;15.87;;;11.77;;
68653;SDS011;55636;51.108;13.622;2024-01-07T02:51:35;15.10;;;10.93;;
68653;SDS011;55636;51.108;13.622;2024-01-07T02:52:38;15.13;;;11.83;;
68653;SDS011;55636;51.108;13.622;2024-01-07T02:53:41;14.10;;;11.47;;
68653;SDS011;55636;51.108;13.622;2024-01-07T02:54:44;15.07;;;11.60;;
68653;SDS011;55636;51.108;13.622;2024-01-07T02:55:48;14.77;;;11.33;;
68653;SDS011;55636;51.108;13.622;2024-01-07T02:56:52;13.17;;;10.87;;
68653;SDS011;55636;51.108;13.622;2024-01-07T02:57:55;14.33;;;11.17;;
68653;SDS011;55636;51.108;13.622;2024-01-07T02:58:57;14.63;;;11.53;;
68653;SDS011;55636;51.108;13.622;2024-01-07T03:00:00;14.03;;;11.30;;
68653;SDS011;55636;51.108;13.622;2024-01-07T03:01:03;14.30;;;11.27;;
68653;SDS011;55636;51.108;13.622;2024-01-07T03:02:13;15.20;;;10.80;;
68653;SDS011;55636;51.108;13.622;2024-01-07T03:03:15;14.27;;;10.87;;
68653;SDS011;55636;51.108;13.622;2024-01-07T03:04:18;12.93;;;10.73;;
68653;SDS011;55636;51.108;13.622;2024-01-07T03:05:22;15.67;;;11.23;;
68653;SDS011;55636;51.108;13.622;2024-01-07T03:06:26;13.10;;;10.60;;
68653;SDS011;55636;51.108;13.622;2024-01-07T03:07:30;14.40;;;11.20;;
68653;SDS011;55636;51.108;13.622;2024-01-07T03:08:33;14.00;;;10.43;;
68653;SDS011;55636;51.108;13.622;2024-01-07T03:09:37;15.00;;;10.70;;
68653;SDS011;55636;51.108;13.622;2024-01-07T03:10:40;13.57;;;10.83;;
68653;SDS011;55636;51.108;13.622;2024-01-07T03:11:46;15.30;;;11.40;;
68653;SDS011;55636;51.108;13.622;2024-01-07T03:12:48;14.70;;;10.53;;
68653;SDS011;55636;51.108;13.622;2024-01-07T03:13:53;14.57;;;10.87;;
68653;SDS011;55636;51.108;13.622;2024-01-07T03:14:57;14.77;;;11.40;;
68653;SDS011;55636;51.108;13.622;2024-01-07T03:16:01;14.67;;;11.60;;
68653;SDS011;55636;51.108;13.622;2024-01-07T03:17:03;14.40;;;11.60;;
68653;SDS011;55636;51.108;13.622;2024-01-07T03:18:06;13.43;;;10.80;;
68653;SDS011;55636;51.108;13.622;2024-01-07T03:19:09;13.20;;;11.30;;
68653;SDS011;55636;51.108;13.622;2024-01-07T03:20:11;13.87;;;11.20;;
68653;SDS011;55636;51.108;13.622;2024-01-07T03:21:17;14.07;;;11.27;;
68653;SDS011;55636;51.108;13.622;2024-01-07T03:22:23;14.33;;;10.80;;
68653;SDS011;55636;51.108;13.622;2024-01-07T03:23:26;11.97;;;9.97;;
68653;SDS011;55636;51.108;13.622;2024-01-07T03:24:30;14.83;;;11.03;;
68653;SDS011;55636;51.108;13.622;2024-01-07T03:25:35;13.97;;;11.40;;
68653;SDS011;55636;51.108;13.622;2024-01-07T03:26:37;12.57;;;10.50;;
68653;SDS011;55636;51.108;13.622;2024-01-07T03:27:40;13.80;;;11.30;;
68653;SDS011;55636;51.108;13.622;2024-01-07T03:28:42;13.43;;;11.20;;
68653;SDS011;55636;51.108;13.622;2024-01-07T03:29:45;12.93;;;10.47;;
68653;SDS011;55636;51.108;13.622;2024-01-07T03:30:48;13.23;;;10.60;;
68653;SDS011;55636;51.108;13.622;2024-01-07T03:31:51;14.67;;;10.90;;
68653;SDS011;55636;51.108;13.622;2024-01-07T03:32:57;13.83;;;10.80;;
68653;SDS011;55636;51.108;13.622;2024-01-07T03:34:01;12.97;;;10.63;;
68653;SDS011;55636;51.108;13.622;2024-01-07T03:35:11;14.53;;;11.00;;
68653;SDS011;55636;51.108;13.622;2024-01-07T03:36:14;13.23;;;10.37;;
68653;SDS011;55636;51.108;13.622;2024-01-07T03:37:17;11.63;;;10.27;;
68653;SDS011;55636;51.108;13.622;2024-01-07T03:38:20;14.87;;;10.43;;
68653;SDS011;55636;51.108;13.622;2024-01-07T03:39:23;14.23;;;10.57;;
68653;SDS011;55636;51.108;13.622;2024-01-07T03:40:25;13.07;;;10.67;;
68653;SDS011;55636;51.108;13.622;2024-01-07T03:41:28;12.50;;;10.10;;
68653;SDS011;55636;51.108;13.622;2024-01-07T03:42:33;12.77;;;10.07;;
68653;SDS011;55636;51.108;13.622;2024-01-07T03:43:35;13.90;;;10.03;;
68653;SDS011;55636;51.108;13.622;2024-01-07T03:44:38;13.13;;;10.43;;
68653;SDS011;55636;51.108;13.622;2024-01-07T03:45:41;13.97;;;10.77;;
68653;SDS011;55636;51.108;13.622;2024-01-07T03:46:46;13.47;;;10.50;;
68653;SDS011;55636;51.108;13.622;2024-01-07T03:47:48;12.80;;;9.83;;
68653;SDS011;55636;51.108;13.622;2024-01-07T03:48:51;11.70;;;9.93;;
68653;SDS011;55636;51.108;13.622;2024-01-07T03:49:54;12.07;;;9.70;;
68653;SDS011;55636;51.108;13.622;2024-01-07T03:50:56;12.53;;;10.30;;
68653;SDS011;55636;51.108;13.622;2024-01-07T03:51:59;13.87;;;10.10;;
68653;SDS011;55636;51.108;13.622;2024-01-07T03:53:02;12.40;;;9.73;;
68653;SDS011;55636;51.108;13.622;2024-01-07T03:54:05;13.97;;;10.27;;
68653;SDS011;55636;51.108;13.622;2024-01-07T03:55:08;12.30;;;9.90;;
68653;SDS011;55636;51.108;13.622;2024-01-07T03:56:12;12.60;;;9.80;;
68653;SDS011;55636;51.108;13.622;2024-01-07T03:57:15;11.83;;;9.90;;
68653;SDS011;55636;51.108;13.622;2024-01-07T03:58:19;14.30;;;10.10;;
68653;SDS011;55636;51.108;13.622;2024-01-07T03:59:21;13.13;;;10.13;;
68653;SDS011;55636;51.108;13.622;2024-01-07T04:00:25;11.97;;;9.63;;
68653;SDS011;55636;51.108;13.622;2024-01-07T04:01:28;12.90;;;10.13;;
68653;SDS011;55636;51.108;13.622;2024-01-07T04:02:30;11.33;;;9.33;;
68653;SDS011;55636;51.108;13.622;2024-01-07T04:03:33;11.30;;;9.80;;
68653;SDS011;55636;51.108;13.622;2024-01-07T04:04:35;11.10;;;9.00;;
68653;SDS011;55636;51.108;13.622;2024-01-07T04:05:37;11.73;;;9.70;;
68653;SDS011;55636;51.108;13.622;2024-01-07T04:06:40;12.63;;;10.00;;
68653;SDS011;55636;51.108;13.622;2024-01-07T04:07:43;12.00;;;10.00;;
68653;SDS011;55636;51.108;13.622;2024-01-07T04:08:45;12.87;;;10.07;;
68653;SDS011;55636;51.108;13.622;2024-01-07T04:09:49;12.03;;;9.77;;
68653;SDS011;55636;51.108;13.622;2024-01-07T04:10:51;12.77;;;9.93;;
68653;SDS011;55636;51.108;13.622;2024-01-07T04:11:54;12.50;;;9.80;;
68653;SDS011;55636;51.108;13.622;2024-01-07T04:12:57;11.73;;;9.63;;
68653;SDS011;55636;51.108;13.622;2024-01-07T04:14:01;12.13;;;9.97;;
68653;SDS011;55636;51.108;13.622;2024-01-07T04:15:06;13.60;;;9.90;;
68653;SDS011;55636;51.108;13.622;2024-01-07T04:16:18;11.90;;;9.27;;
68653;SDS011;55636;51.108;13.622;2024-01-07T04:17:20;12.30;;;9.80;;
68653;SDS011;55636;51.108;13.622;2024-01-07T04:18:23;11.97;;;9.53;;
68653;SDS011;55636;51.108;13.622;2024-01-07T04:19:26;11.67;;;9.73;;
68653;SDS011;55636;51.108;13.622;2024-01-07T04:20:29;11.67;;;9.77;;
68653;SDS011;55636;51.108;13.622;2024-01-07T04:21:34;13.23;;;10.00;;
68653;SDS011;55636;51.108;13.622;2024-01-07T04:22:39;13.40;;;10.30;;
68653;SDS011;55636;51.108;13.622;2024-01-07T04:23:42;12.23;;;9.37;;
68653;SDS011;55636;51.108;13.622;2024-01-07T04:24:45;13.93;;;10.43;;
68653;SDS011;55636;51.108;13.622;2024-01-07T04:25:51;11.23;;;9.33;;
68653;SDS011;55636;51.108;13.622;2024-01-07T04:26:53;12.47;;;9.67;;
68653;SDS011;55636;51.108;13.622;2024-01-07T04:27:56;11.83;;;9.80;;
68653;SDS011;55636;51.108;13.622;2024-01-07T04:28:59;11.93;;;9.77;;
68653;SDS011;55636;51.108;13.622;2024-01-07T04:30:01;12.20;;;9.57;;
68653;SDS011;55636;51.108;13.622;2024-01-07T04:31:04;13.60;;;9.63;;
68653;SDS011;55636;51.108;13.622;2024-01-07T04:32:07;12.90;;;9.60;;
68653;SDS011;55636;51.108;13.622;2024-01-07T04:33:09;11.90;;;9.23;;
68653;SDS011;55636;51.108;13.622;2024-01-07T04:34:13;12.53;;;9.13;;
68653;SDS011;55636;51.108;13.622;2024-01-07T04:35:17;10.80;;;9.47;;
68653;SDS011;55636;51.108;13.622;2024-01-07T04:36:20;11.87;;;9.57;;
68653;SDS011;55636;51.108;13.622;2024-01-07T04:37:23;12.43;;;9.77;;
68653;SDS011;55636;51.108;13.622;2024-01-07T04:38:25;12.23;;;9.27;;
68653;SDS011;55636;51.108;13.622;2024-01-07T04:39:29;10.63;;;8.83;;
68653;SDS011;55636;51.108;13.622;2024-01-07T04:40:33;13.67;;;9.77;;
68653;SDS011;55636;51.108;13.622;2024-01-07T04:41:35;11.47;;;9.17;;
68653;SDS011;55636;51.108;13.622;2024-01-07T04:42:40;11.03;;;9.17;;
68653;SDS011;55636;51.108;13.622;2024-01-07T04:43:45;10.53;;;8.73;;
68653;SDS011;55636;51.108;13.622;2024-01-07T04:44:47;13.23;;;9.70;;
68653;SDS011;55636;51.108;13.622;2024-01-07T04:45:50;11.23;;;9.10;;
68653;SDS011;55636;51.108;13.622;2024-01-07T04:46:52;11.57;;;9.10;;
68653;SDS011;55636;51.108;13.622;2024-01-07T04:47:55;11.43;;;9.13;;
68653;SDS011;55636;51.108;13.622;2024-01-07T04:48:57;11.90;;;9.00;;
68653;SDS011;55636;51.108;13.622;2024-01-07T04:50:00;10.83;;;8.90;;
68653;SDS011;55636;51.108;13.622;2024-01-07T04:51:02;11.23;;;8.80;;
68653;SDS011;55636;51.108;13.622;2024-01-07T04:52:05;11.87;;;9.17;;
68653;SDS011;55636;51.108;13.622;2024-01-07T04:53:08;12.60;;;9.33;;
68653;SDS011;55636;51.108;13.622;2024-01-07T04:54:11;11.20;;;9.13;;
68653;SDS011;55636;51.108;13.622;2024-01-07T04:55:14;11.80;;;8.93;;
68653;SDS011;55636;51.108;13.622;2024-01-07T04:56:16;11.83;;;9.00;;
68653;SDS011;55636;51.108;13.622;2024-01-07T04:57:19;10.63;;;8.50;;
68653;SDS011;55636;51.108;13.622;2024-01-07T04:58:23;10.97;;;8.50;;
68653;SDS011;55636;51.108;13.622;2024-01-07T04:59:27;10.23;;;8.50;;
68653;SDS011;55636;51.108;13.622;2024-01-07T05:00:35;10.47;;;9.00;;
68653;SDS011;55636;51.108;13.622;2024-01-07T05:01:41;12.17;;;8.87;;
68653;SDS011;55636;51.108;13.622;2024-01-07T05:02:44;11.30;;;8.43;;
68653;SDS011;55636;51.108;13.622;2024-01-07T05:03:47;10.60;;;8.43;;
68653;SDS011;55636;51.108;13.622;2024-01-07T05:04:50;10.17;;;8.10;;
68653;SDS011;55636;51.108;13.622;2024-01-07T05:05:54;11.03;;;8.73;;
68653;SDS011;55636;51.108;13.622;2024-01-07T05:06:56;9.17;;;8.10;;
68653;SDS011;55636;51.108;13.622;2024-01-07T05:07:59;9.27;;;7.77;;
68653;SDS011;55636;51.108;13.622;2024-01-07T05:09:03;11.80;;;8.20;;
68653;SDS011;55636;51.108;13.622;2024-01-07T05:10:06;10.07;;;8.13;;
68653;SDS011;55636;51.108;13.622;2024-01-07T05:11:11;9.77;;;7.83;;
68653;SDS011;55636;51.108;13.622;2024-01-07T05:12:13;9.30;;;7.40;;
68653;SDS011;55636;51.108;13.622;2024-01-07T05:13:18;9.67;;;7.57;;
68653;SDS011;55636;51.108;13.622;2024-01-07T05:14:20;8.10;;;7.07;;
68653;SDS011;55636;51.108;13.622;2024-01-07T05:15:27;9.13;;;7.40;;
68653;SDS011;55636;51.108;13.622;2024-01-07T05:16:30;11.37;;;7.63;;
68653;SDS011;55636;51.108;13.622;2024-01-07T05:17:33;9.43;;;7.43;;
68653;SDS011;55636;51.108;13.622;2024-01-07T05:18:37;9.57;;;7.50;;
68653;SDS011;55636;51.108;13.622;2024-01-07T05:19:41;9.87;;;7.53;;
68653;SDS011;55636;51.108;13.622;2024-01-07T05:20:44;8.77;;;7.10;;
68653;SDS011;55636;51.108;13.622;2024-01-07T05:21:46;10.30;;;7.63;;
68653;SDS011;55636;51.108;13.622;2024-01-07T05:22:50;7.70;;;6.90;;
68653;SDS011;55636;51.108;13.622;2024-01-07T05:23:52;10.97;;;7.50;;
68653;SDS011;55636;51.108;13.622;2024-01-07T05:24:57;9.27;;;7.17;;
68653;SDS011;55636;51.108;13.622;2024-01-07T05:26:01;9.50;;;7.17;;
68653;SDS011;55636;51.108;13.622;2024-01-07T05:27:04;9.47;;;7.47;;
68653;SDS011;55636;51.108;13.622;2024-01-07T05:28:08;8.97;;;7.20;;
68653;SDS011;55636;51.108;13.622;2024-01-07T05:29:11;9.90;;;7.80;;
68653;SDS011;55636;51.108;13.622;2024-01-07T05:30:15;9.03;;;6.80;;
68653;SDS011;55636;51.108;13.622;2024-01-07T05:31:18;9.07;;;6.53;;
68653;SDS011;55636;51.108;13.622;2024-01-07T05:32:21;9.33;;;6.63;;
68653;SDS011;55636;51.108;13.622;2024-01-07T05:33:23;7.93;;;6.80;;
68653;SDS011;55636;51.108;13.622;2024-01-07T05:34:28;8.00;;;6.63;;
68653;SDS011;55636;51.108;13.622;2024-01-07T05:35:32;8.80;;;6.63;;
68653;SDS011;55636;51.108;13.622;2024-01-07T05:36:37;7.40;;;6.17;;
68653;SDS011;55636;51.108;13.622;2024-01-07T05:37:40;9.23;;;6.70;;
68653;SDS011;55636;51.108;13.622;2024-01-07T05:38:42;7.50;;;6.23;;
68653;SDS011;55636;51.108;13.622;2024-01-07T05:39:45;8.27;;;6.47;;
68653;SDS011;55636;51.108;13.622;2024-01-07T05:40:47;8.10;;;6.47;;
68653;SDS011;55636;51.108;13.622;2024-01-07T05:41:51;8.93;;;7.00;;
68653;SDS011;55636;51.108;13.622;2024-01-07T05:42:53;8.87;;;6.93;;
68653;SDS011;55636;51.108;13.622;2024-01-07T05:43:56;8.40;;;6.67;;
68653;SDS011;55636;51.108;13.622;2024-01-07T05:44:58;7.87;;;6.53;;
68653;SDS011;55636;51.108;13.622;2024-01-07T05:46:01;7.93;;;6.27;;
68653;SDS011;55636;51.108;13.622;2024-01-07T05:47:03;7.57;;;5.93;;
68653;SDS011;55636;51.108;13.622;2024-01-07T05:48:07;7.90;;;6.10;;
68653;SDS011;55636;51.108;13.622;2024-01-07T05:49:10;8.60;;;6.43;;
68653;SDS011;55636;51.108;13.622;2024-01-07T05:50:12;8.07;;;6.53;;
68653;SDS011;55636;51.108;13.622;2024-01-07T05:51:18;8.93;;;6.60;;
68653;SDS011;55636;51.108;13.622;2024-01-07T05:52:23;7.87;;;6.50;;
68653;SDS011;55636;51.108;13.622;2024-01-07T05:53:26;8.70;;;6.50;;
68653;SDS011;55636;51.108;13.622;2024-01-07T05:54:31;7.70;;;6.13;;
68653;SDS011;55636;51.108;13.622;2024-01-07T05:55:34;8.27;;;6.13;;
68653;SDS011;55636;51.108;13.622;2024-01-07T05:56:39;7.77;;;6.33;;
68653;SDS011;55636;51.108;13.622;2024-01-07T05:57:43;8.33;;;6.20;;
68653;SDS011;55636;51.108;13.622;2024-01-07T05:58:47;8.03;;;5.90;;
68653;SDS011;55636;51.108;13.622;2024-01-07T05:59:50;9.10;;;6.10;;
68653;SDS011;55636;51.108;13.622;2024-01-07T06:00:55;7.00;;;6.00;;
68653;SDS011;55636;51.108;13.622;2024-01-07T06:02:00;7.80;;;6.33;;
68653;SDS011;55636;51.108;13.622;2024-01-07T06:03:06;7.37;;;6.23;;
68653;SDS011;55636;51.108;13.622;2024-01-07T06:04:09;7.73;;;6.33;;
68653;SDS011;55636;51.108;13.622;2024-01-07T06:05:12;8.30;;;6.10;;
68653;SDS011;55636;51.108;13.622;2024-01-07T06:06:15;8.20;;;6.57;;
68653;SDS011;55636;51.108;13.622;2024-01-07T06:07:22;7.07;;;6.30;;
68653;SDS011;55636;51.108;13.622;2024-01-07T06:08:28;8.37;;;6.27;;
68653;SDS011;55636;51.108;13.622;2024-01-07T06:09:30;7.73;;;6.23;;
68653;SDS011;55636;51.108;13.622;2024-01-07T06:10:34;7.77;;;6.00;;